sensor_id;sensor_type;location;lat;lon;timestamp;P1;durP1;ratioP1;P2;durP2;ratioP2
19687;SDS011;9993;52.008;4.732;2022-08-21T00:01:09;9.98;;;6.38;;
19687;SDS011;9993;52.008;4.732;2022-08-21T00:03:35;11.15;;;6.70;;
19687;SDS011;9993;52.008;4.732;2022-08-21T00:06:01;9.55;;;6.43;;
19687;SDS011;9993;52.008;4.732;2022-08-21T00:08:26;10.45;;;6.85;;
19687;SDS011;9993;52.008;4.732;2022-08-21T00:10:52;12.35;;;7.00;;
19687;SDS011;9993;52.008;4.732;2022-08-21T00:13:17;8.70;;;6.18;;
19687;SDS011;9993;52.008;4.732;2022-08-21T00:15:42;9.32;;;5.93;;
19687;SDS011;9993;52.008;4.732;2022-08-21T00:18:09;9.45;;;6.18;;
19687;SDS011;9993;52.008;4.732;2022-08-21T00:20:35;9.48;;;7.15;;
19687;SDS011;9993;52.008;4.732;2022-08-21T00:23:01;8.82;;;5.35;;
19687;SDS011;9993;52.008;4.732;2022-08-21T00:25:26;7.40;;;6.13;;
19687;SDS011;9993;52.008;4.732;2022-08-21T00:27:52;8.45;;;6.03;;
19687;SDS011;9993;52.008;4.732;2022-08-21T00:30:18;7.90;;;6.18;;
19687;SDS011;9993;52.008;4.732;2022-08-21T00:32:43;10.65;;;6.30;;
19687;SDS011;9993;52.008;4.732;2022-08-21T00:35:10;9.32;;;7.05;;
19687;SDS011;9993;52.008;4.732;2022-08-21T00:37:37;12.63;;;6.15;;
19687;SDS011;9993;52.008;4.732;2022-08-21T00:40:02;10.02;;;5.57;;
19687;SDS011;9993;52.008;4.732;2022-08-21T00:42:28;10.00;;;5.72;;
19687;SDS011;9993;52.008;4.732;2022-08-21T00:44:53;8.27;;;5.70;;
19687;SDS011;9993;52.008;4.732;2022-08-21T00:47:19;10.02;;;5.93;;
19687;SDS011;9993;52.008;4.732;2022-08-21T00:49:44;8.77;;;6.20;;
19687;SDS011;9993;52.008;4.732;2022-08-21T00:52:11;9.52;;;6.35;;
19687;SDS011;9993;52.008;4.732;2022-08-21T00:54:37;9.02;;;6.03;;
19687;SDS011;9993;52.008;4.732;2022-08-21T00:57:05;9.43;;;6.45;;
19687;SDS011;9993;52.008;4.732;2022-08-21T00:59:32;7.90;;;5.70;;
19687;SDS011;9993;52.008;4.732;2022-08-21T01:01:59;10.52;;;6.72;;
19687;SDS011;9993;52.008;4.732;2022-08-21T01:04:24;9.35;;;5.68;;
19687;SDS011;9993;52.008;4.732;2022-08-21T01:06:50;13.10;;;6.18;;
19687;SDS011;9993;52.008;4.732;2022-08-21T01:09:16;12.65;;;5.82;;
19687;SDS011;9993;52.008;4.732;2022-08-21T01:11:41;8.38;;;6.43;;
19687;SDS011;9993;52.008;4.732;2022-08-21T01:14:08;6.95;;;6.25;;
19687;SDS011;9993;52.008;4.732;2022-08-21T01:16:35;8.18;;;6.30;;
19687;SDS011;9993;52.008;4.732;2022-08-21T01:19:00;8.15;;;6.18;;
19687;SDS011;9993;52.008;4.732;2022-08-21T01:21:25;8.50;;;6.53;;
19687;SDS011;9993;52.008;4.732;2022-08-21T01:23:52;9.63;;;5.65;;
19687;SDS011;9993;52.008;4.732;2022-08-21T01:26:24;7.28;;;5.72;;
19687;SDS011;9993;52.008;4.732;2022-08-21T01:28:57;7.30;;;6.15;;
19687;SDS011;9993;52.008;4.732;2022-08-21T01:31:24;8.02;;;6.13;;
19687;SDS011;9993;52.008;4.732;2022-08-21T01:37:32;8.38;;;6.53;;
19687;SDS011;9993;52.008;4.732;2022-08-21T01:39:57;9.60;;;6.68;;
19687;SDS011;9993;52.008;4.732;2022-08-21T01:42:22;9.00;;;6.13;;
19687;SDS011;9993;52.008;4.732;2022-08-21T01:44:47;8.63;;;6.22;;
19687;SDS011;9993;52.008;4.732;2022-08-21T01:47:22;9.70;;;6.57;;
19687;SDS011;9993;52.008;4.732;2022-08-21T01:49:48;9.52;;;6.20;;
19687;SDS011;9993;52.008;4.732;2022-08-21T01:52:13;9.50;;;6.43;;
19687;SDS011;9993;52.008;4.732;2022-08-21T01:54:38;10.68;;;6.68;;
19687;SDS011;9993;52.008;4.732;2022-08-21T01:57:04;11.13;;;6.53;;
19687;SDS011;9993;52.008;4.732;2022-08-21T01:59:29;13.70;;;6.82;;
19687;SDS011;9993;52.008;4.732;2022-08-21T02:01:56;10.63;;;6.75;;
19687;SDS011;9993;52.008;4.732;2022-08-21T02:04:28;10.60;;;6.28;;
19687;SDS011;9993;52.008;4.732;2022-08-21T02:06:53;10.20;;;6.40;;
19687;SDS011;9993;52.008;4.732;2022-08-21T02:09:18;8.43;;;6.57;;
19687;SDS011;9993;52.008;4.732;2022-08-21T02:11:44;8.15;;;6.43;;
19687;SDS011;9993;52.008;4.732;2022-08-21T02:14:10;11.00;;;6.75;;
19687;SDS011;9993;52.008;4.732;2022-08-21T02:16:36;9.27;;;6.95;;
19687;SDS011;9993;52.008;4.732;2022-08-21T02:19:02;10.07;;;6.90;;
19687;SDS011;9993;52.008;4.732;2022-08-21T02:21:27;11.93;;;6.80;;
19687;SDS011;9993;52.008;4.732;2022-08-21T02:23:52;9.65;;;6.25;;
19687;SDS011;9993;52.008;4.732;2022-08-21T02:26:17;9.90;;;6.20;;
19687;SDS011;9993;52.008;4.732;2022-08-21T02:28:42;11.68;;;6.63;;
19687;SDS011;9993;52.008;4.732;2022-08-21T02:31:08;8.05;;;6.63;;
19687;SDS011;9993;52.008;4.732;2022-08-21T02:33:33;7.82;;;5.70;;
19687;SDS011;9993;52.008;4.732;2022-08-21T02:35:59;9.68;;;6.22;;
19687;SDS011;9993;52.008;4.732;2022-08-21T02:38:29;12.85;;;7.18;;
19687;SDS011;9993;52.008;4.732;2022-08-21T02:40:55;9.35;;;5.85;;
19687;SDS011;9993;52.008;4.732;2022-08-21T02:43:21;8.88;;;6.03;;
19687;SDS011;9993;52.008;4.732;2022-08-21T02:45:47;12.13;;;7.05;;
19687;SDS011;9993;52.008;4.732;2022-08-21T02:48:13;9.88;;;6.05;;
19687;SDS011;9993;52.008;4.732;2022-08-21T02:50:41;9.45;;;5.95;;
19687;SDS011;9993;52.008;4.732;2022-08-21T02:53:07;10.73;;;5.88;;
19687;SDS011;9993;52.008;4.732;2022-08-21T02:55:33;7.30;;;5.95;;
19687;SDS011;9993;52.008;4.732;2022-08-21T02:57:58;9.57;;;5.82;;
19687;SDS011;9993;52.008;4.732;2022-08-21T03:00:24;10.90;;;5.65;;
19687;SDS011;9993;52.008;4.732;2022-08-21T03:02:50;10.75;;;6.18;;
19687;SDS011;9993;52.008;4.732;2022-08-21T03:05:16;11.60;;;6.25;;
19687;SDS011;9993;52.008;4.732;2022-08-21T03:07:42;12.70;;;5.95;;
19687;SDS011;9993;52.008;4.732;2022-08-21T03:10:07;7.80;;;5.78;;
19687;SDS011;9993;52.008;4.732;2022-08-21T03:12:33;7.45;;;6.28;;
19687;SDS011;9993;52.008;4.732;2022-08-21T03:15:00;9.70;;;6.15;;
19687;SDS011;9993;52.008;4.732;2022-08-21T03:17:25;7.85;;;6.07;;
19687;SDS011;9993;52.008;4.732;2022-08-21T03:19:51;9.68;;;6.75;;
19687;SDS011;9993;52.008;4.732;2022-08-21T03:22:16;10.10;;;5.85;;
19687;SDS011;9993;52.008;4.732;2022-08-21T03:24:42;9.07;;;6.40;;
19687;SDS011;9993;52.008;4.732;2022-08-21T03:27:07;15.95;;;6.40;;
19687;SDS011;9993;52.008;4.732;2022-08-21T03:29:33;9.55;;;5.85;;
19687;SDS011;9993;52.008;4.732;2022-08-21T03:31:58;13.55;;;6.40;;
19687;SDS011;9993;52.008;4.732;2022-08-21T03:34:23;10.52;;;6.22;;
19687;SDS011;9993;52.008;4.732;2022-08-21T03:36:48;9.18;;;6.05;;
19687;SDS011;9993;52.008;4.732;2022-08-21T03:39:14;10.85;;;5.90;;
19687;SDS011;9993;52.008;4.732;2022-08-21T03:41:40;10.18;;;6.25;;
19687;SDS011;9993;52.008;4.732;2022-08-21T03:44:05;8.48;;;5.65;;
19687;SDS011;9993;52.008;4.732;2022-08-21T03:46:30;7.65;;;5.70;;
19687;SDS011;9993;52.008;4.732;2022-08-21T03:48:55;11.32;;;5.80;;
19687;SDS011;9993;52.008;4.732;2022-08-21T03:51:20;7.88;;;5.85;;
19687;SDS011;9993;52.008;4.732;2022-08-21T03:53:46;8.98;;;5.70;;
19687;SDS011;9993;52.008;4.732;2022-08-21T03:56:11;9.98;;;5.90;;
19687;SDS011;9993;52.008;4.732;2022-08-21T03:58:36;8.32;;;5.53;;
19687;SDS011;9993;52.008;4.732;2022-08-21T04:01:03;11.25;;;5.70;;
19687;SDS011;9993;52.008;4.732;2022-08-21T04:03:29;10.55;;;5.78;;
19687;SDS011;9993;52.008;4.732;2022-08-21T04:05:54;8.60;;;5.55;;
19687;SDS011;9993;52.008;4.732;2022-08-21T04:08:19;7.43;;;5.50;;
19687;SDS011;9993;52.008;4.732;2022-08-21T04:10:46;9.50;;;6.60;;
19687;SDS011;9993;52.008;4.732;2022-08-21T04:13:12;14.13;;;6.53;;
19687;SDS011;9993;52.008;4.732;2022-08-21T04:15:37;10.10;;;5.93;;
19687;SDS011;9993;52.008;4.732;2022-08-21T04:18:03;10.30;;;6.70;;
19687;SDS011;9993;52.008;4.732;2022-08-21T04:20:28;12.13;;;5.85;;
19687;SDS011;9993;52.008;4.732;2022-08-21T04:22:54;10.63;;;6.43;;
19687;SDS011;9993;52.008;4.732;2022-08-21T04:25:20;12.00;;;6.20;;
19687;SDS011;9993;52.008;4.732;2022-08-21T04:27:45;10.73;;;5.85;;
19687;SDS011;9993;52.008;4.732;2022-08-21T04:30:11;8.35;;;6.15;;
19687;SDS011;9993;52.008;4.732;2022-08-21T04:32:37;11.90;;;5.43;;
19687;SDS011;9993;52.008;4.732;2022-08-21T04:35:06;9.23;;;5.80;;
19687;SDS011;9993;52.008;4.732;2022-08-21T04:37:32;8.95;;;5.78;;
19687;SDS011;9993;52.008;4.732;2022-08-21T04:39:57;8.32;;;5.60;;
19687;SDS011;9993;52.008;4.732;2022-08-21T04:42:23;6.63;;;4.68;;
19687;SDS011;9993;52.008;4.732;2022-08-21T04:44:49;12.07;;;5.18;;
19687;SDS011;9993;52.008;4.732;2022-08-21T04:47:14;9.00;;;5.28;;
19687;SDS011;9993;52.008;4.732;2022-08-21T04:49:41;9.63;;;5.40;;
19687;SDS011;9993;52.008;4.732;2022-08-21T04:52:06;9.20;;;4.78;;
19687;SDS011;9993;52.008;4.732;2022-08-21T04:54:32;11.57;;;5.13;;
19687;SDS011;9993;52.008;4.732;2022-08-21T04:56:59;8.13;;;5.18;;
19687;SDS011;9993;52.008;4.732;2022-08-21T04:59:30;11.35;;;6.28;;
19687;SDS011;9993;52.008;4.732;2022-08-21T05:01:56;10.07;;;5.30;;
19687;SDS011;9993;52.008;4.732;2022-08-21T05:04:23;9.27;;;5.30;;
19687;SDS011;9993;52.008;4.732;2022-08-21T05:06:49;10.73;;;5.43;;
19687;SDS011;9993;52.008;4.732;2022-08-21T05:09:17;12.65;;;4.93;;
19687;SDS011;9993;52.008;4.732;2022-08-21T05:11:44;5.55;;;4.97;;
19687;SDS011;9993;52.008;4.732;2022-08-21T05:14:10;8.68;;;4.82;;
19687;SDS011;9993;52.008;4.732;2022-08-21T05:16:36;8.02;;;5.05;;
19687;SDS011;9993;52.008;4.732;2022-08-21T05:19:01;9.63;;;6.05;;
19687;SDS011;9993;52.008;4.732;2022-08-21T05:21:26;12.00;;;5.65;;
19687;SDS011;9993;52.008;4.732;2022-08-21T05:23:51;10.63;;;5.72;;
19687;SDS011;9993;52.008;4.732;2022-08-21T05:26:17;11.32;;;5.93;;
19687;SDS011;9993;52.008;4.732;2022-08-21T05:28:42;9.48;;;6.00;;
19687;SDS011;9993;52.008;4.732;2022-08-21T05:31:07;8.55;;;5.60;;
19687;SDS011;9993;52.008;4.732;2022-08-21T05:33:34;10.55;;;6.05;;
19687;SDS011;9993;52.008;4.732;2022-08-21T05:35:59;14.65;;;6.68;;
19687;SDS011;9993;52.008;4.732;2022-08-21T05:38:26;12.80;;;6.07;;
19687;SDS011;9993;52.008;4.732;2022-08-21T05:40:54;12.63;;;6.90;;
19687;SDS011;9993;52.008;4.732;2022-08-21T05:43:20;10.68;;;6.70;;
19687;SDS011;9993;52.008;4.732;2022-08-21T05:45:45;15.57;;;6.57;;
19687;SDS011;9993;52.008;4.732;2022-08-21T05:48:12;16.05;;;6.78;;
19687;SDS011;9993;52.008;4.732;2022-08-21T05:50:37;9.95;;;6.35;;
19687;SDS011;9993;52.008;4.732;2022-08-21T05:53:04;12.57;;;7.25;;
19687;SDS011;9993;52.008;4.732;2022-08-21T05:55:29;17.75;;;6.85;;
19687;SDS011;9993;52.008;4.732;2022-08-21T05:57:55;12.63;;;6.35;;
19687;SDS011;9993;52.008;4.732;2022-08-21T06:00:20;12.90;;;6.93;;
19687;SDS011;9993;52.008;4.732;2022-08-21T06:02:47;13.30;;;6.63;;
19687;SDS011;9993;52.008;4.732;2022-08-21T06:05:13;11.50;;;6.90;;
19687;SDS011;9993;52.008;4.732;2022-08-21T06:07:38;12.65;;;7.28;;
19687;SDS011;9993;52.008;4.732;2022-08-21T06:10:04;21.95;;;7.95;;
19687;SDS011;9993;52.008;4.732;2022-08-21T06:12:29;16.23;;;6.95;;
19687;SDS011;9993;52.008;4.732;2022-08-21T06:14:54;10.75;;;7.20;;
19687;SDS011;9993;52.008;4.732;2022-08-21T06:17:19;14.27;;;6.93;;
19687;SDS011;9993;52.008;4.732;2022-08-21T06:19:44;16.38;;;6.53;;
19687;SDS011;9993;52.008;4.732;2022-08-21T06:22:10;9.23;;;6.15;;
19687;SDS011;9993;52.008;4.732;2022-08-21T06:24:35;14.55;;;6.57;;
19687;SDS011;9993;52.008;4.732;2022-08-21T06:27:05;14.57;;;6.32;;
19687;SDS011;9993;52.008;4.732;2022-08-21T06:29:30;12.10;;;5.75;;
19687;SDS011;9993;52.008;4.732;2022-08-21T06:31:55;14.02;;;6.32;;
19687;SDS011;9993;52.008;4.732;2022-08-21T06:34:21;13.32;;;6.18;;
19687;SDS011;9993;52.008;4.732;2022-08-21T06:36:46;11.50;;;5.72;;
19687;SDS011;9993;52.008;4.732;2022-08-21T06:39:11;11.77;;;6.28;;
19687;SDS011;9993;52.008;4.732;2022-08-21T06:41:38;8.40;;;5.63;;
19687;SDS011;9993;52.008;4.732;2022-08-21T06:44:03;9.05;;;6.10;;
19687;SDS011;9993;52.008;4.732;2022-08-21T06:46:28;12.65;;;5.60;;
19687;SDS011;9993;52.008;4.732;2022-08-21T06:48:54;11.20;;;6.15;;
19687;SDS011;9993;52.008;4.732;2022-08-21T06:51:20;15.38;;;5.90;;
19687;SDS011;9993;52.008;4.732;2022-08-21T06:53:45;12.20;;;5.80;;
19687;SDS011;9993;52.008;4.732;2022-08-21T06:56:11;10.45;;;5.53;;
19687;SDS011;9993;52.008;4.732;2022-08-21T06:58:36;11.23;;;5.78;;
19687;SDS011;9993;52.008;4.732;2022-08-21T07:01:02;11.15;;;5.88;;
19687;SDS011;9993;52.008;4.732;2022-08-21T07:03:29;15.20;;;5.68;;
19687;SDS011;9993;52.008;4.732;2022-08-21T07:05:55;9.07;;;5.50;;
19687;SDS011;9993;52.008;4.732;2022-08-21T07:08:21;9.20;;;5.18;;
19687;SDS011;9993;52.008;4.732;2022-08-21T07:10:47;10.82;;;5.68;;
19687;SDS011;9993;52.008;4.732;2022-08-21T07:13:13;10.68;;;5.22;;
19687;SDS011;9993;52.008;4.732;2022-08-21T07:15:38;9.35;;;5.18;;
19687;SDS011;9993;52.008;4.732;2022-08-21T07:18:03;9.15;;;5.32;;
19687;SDS011;9993;52.008;4.732;2022-08-21T07:20:29;10.18;;;5.03;;
19687;SDS011;9993;52.008;4.732;2022-08-21T07:22:56;10.25;;;5.43;;
19687;SDS011;9993;52.008;4.732;2022-08-21T07:25:21;11.38;;;5.28;;
19687;SDS011;9993;52.008;4.732;2022-08-21T07:27:46;9.85;;;5.50;;
19687;SDS011;9993;52.008;4.732;2022-08-21T07:30:12;9.70;;;5.25;;
19687;SDS011;9993;52.008;4.732;2022-08-21T07:32:37;11.15;;;4.80;;
19687;SDS011;9993;52.008;4.732;2022-08-21T07:35:02;13.55;;;4.85;;
19687;SDS011;9993;52.008;4.732;2022-08-21T07:37:28;12.07;;;5.40;;
19687;SDS011;9993;52.008;4.732;2022-08-21T07:39:53;7.50;;;4.53;;
19687;SDS011;9993;52.008;4.732;2022-08-21T07:42:18;15.18;;;5.63;;
19687;SDS011;9993;52.008;4.732;2022-08-21T07:44:43;10.35;;;4.93;;
19687;SDS011;9993;52.008;4.732;2022-08-21T07:47:09;11.35;;;4.78;;
19687;SDS011;9993;52.008;4.732;2022-08-21T07:49:34;9.20;;;4.47;;
19687;SDS011;9993;52.008;4.732;2022-08-21T07:52:00;10.32;;;4.45;;
19687;SDS011;9993;52.008;4.732;2022-08-21T07:54:26;10.50;;;5.00;;
19687;SDS011;9993;52.008;4.732;2022-08-21T07:56:51;11.57;;;4.50;;
19687;SDS011;9993;52.008;4.732;2022-08-21T07:59:16;8.90;;;4.65;;
19687;SDS011;9993;52.008;4.732;2022-08-21T08:01:41;11.35;;;4.53;;
19687;SDS011;9993;52.008;4.732;2022-08-21T08:04:07;9.23;;;4.28;;
19687;SDS011;9993;52.008;4.732;2022-08-21T08:06:32;10.63;;;4.40;;
19687;SDS011;9993;52.008;4.732;2022-08-21T08:08:57;11.88;;;4.63;;
19687;SDS011;9993;52.008;4.732;2022-08-21T08:11:22;8.90;;;4.10;;
19687;SDS011;9993;52.008;4.732;2022-08-21T08:13:49;7.80;;;4.45;;
19687;SDS011;9993;52.008;4.732;2022-08-21T08:16:14;12.38;;;4.65;;
19687;SDS011;9993;52.008;4.732;2022-08-21T08:18:40;7.55;;;3.92;;
19687;SDS011;9993;52.008;4.732;2022-08-21T08:21:07;8.95;;;3.80;;
19687;SDS011;9993;52.008;4.732;2022-08-21T08:23:33;8.55;;;3.47;;
19687;SDS011;9993;52.008;4.732;2022-08-21T08:25:58;7.10;;;3.63;;
19687;SDS011;9993;52.008;4.732;2022-08-21T08:28:24;11.32;;;3.70;;
19687;SDS011;9993;52.008;4.732;2022-08-21T08:30:49;10.02;;;4.38;;
19687;SDS011;9993;52.008;4.732;2022-08-21T08:33:15;8.05;;;3.47;;
19687;SDS011;9993;52.008;4.732;2022-08-21T08:35:41;8.95;;;3.67;;
19687;SDS011;9993;52.008;4.732;2022-08-21T08:38:07;7.03;;;2.75;;
19687;SDS011;9993;52.008;4.732;2022-08-21T08:40:36;7.57;;;3.55;;
19687;SDS011;9993;52.008;4.732;2022-08-21T08:43:03;8.88;;;3.03;;
19687;SDS011;9993;52.008;4.732;2022-08-21T08:45:28;8.52;;;3.25;;
19687;SDS011;9993;52.008;4.732;2022-08-21T08:47:56;6.40;;;3.03;;
19687;SDS011;9993;52.008;4.732;2022-08-21T08:52:49;9.90;;;3.40;;
19687;SDS011;9993;52.008;4.732;2022-08-21T08:55:17;7.50;;;2.88;;
19687;SDS011;9993;52.008;4.732;2022-08-21T08:57:45;7.45;;;2.85;;
19687;SDS011;9993;52.008;4.732;2022-08-21T09:00:11;5.28;;;2.90;;
19687;SDS011;9993;52.008;4.732;2022-08-21T09:02:41;7.68;;;2.80;;
19687;SDS011;9993;52.008;4.732;2022-08-21T09:05:07;9.20;;;2.75;;
19687;SDS011;9993;52.008;4.732;2022-08-21T09:10:03;6.50;;;2.47;;
19687;SDS011;9993;52.008;4.732;2022-08-21T09:12:40;8.75;;;2.28;;
19687;SDS011;9993;52.008;4.732;2022-08-21T09:17:41;9.52;;;3.00;;
19687;SDS011;9993;52.008;4.732;2022-08-21T09:26:12;7.15;;;2.90;;
19687;SDS011;9993;52.008;4.732;2022-08-21T09:28:33;6.65;;;2.85;;
19687;SDS011;9993;52.008;4.732;2022-08-21T09:30:58;7.78;;;2.85;;
19687;SDS011;9993;52.008;4.732;2022-08-21T09:33:27;4.63;;;2.35;;
19687;SDS011;9993;52.008;4.732;2022-08-21T09:35:53;7.10;;;2.45;;
19687;SDS011;9993;52.008;4.732;2022-08-21T09:38:27;7.55;;;2.67;;
19687;SDS011;9993;52.008;4.732;2022-08-21T09:41:10;4.72;;;2.42;;
19687;SDS011;9993;52.008;4.732;2022-08-21T09:43:36;5.75;;;2.42;;
19687;SDS011;9993;52.008;4.732;2022-08-21T09:46:11;3.95;;;2.10;;
19687;SDS011;9993;52.008;4.732;2022-08-21T09:48:41;4.30;;;2.22;;
19687;SDS011;9993;52.008;4.732;2022-08-21T09:51:12;4.00;;;2.10;;
19687;SDS011;9993;52.008;4.732;2022-08-21T09:53:38;5.57;;;2.35;;
19687;SDS011;9993;52.008;4.732;2022-08-21T09:56:16;5.47;;;2.47;;
19687;SDS011;9993;52.008;4.732;2022-08-21T09:59:00;8.00;;;2.40;;
19687;SDS011;9993;52.008;4.732;2022-08-21T10:01:25;4.90;;;2.35;;
19687;SDS011;9993;52.008;4.732;2022-08-21T10:04:03;3.90;;;2.10;;
19687;SDS011;9993;52.008;4.732;2022-08-21T10:06:29;5.32;;;2.45;;
19687;SDS011;9993;52.008;4.732;2022-08-21T10:09:10;2.63;;;2.40;;
19687;SDS011;9993;52.008;4.732;2022-08-21T10:11:36;3.42;;;1.95;;
19687;SDS011;9993;52.008;4.732;2022-08-21T10:14:11;5.88;;;2.78;;
19687;SDS011;9993;52.008;4.732;2022-08-21T10:19:15;4.95;;;2.33;;
19687;SDS011;9993;52.008;4.732;2022-08-21T10:24:36;7.18;;;2.05;;
19687;SDS011;9993;52.008;4.732;2022-08-21T10:34:26;7.95;;;2.70;;
19687;SDS011;9993;52.008;4.732;2022-08-21T10:37:11;5.53;;;2.22;;
19687;SDS011;9993;52.008;4.732;2022-08-21T10:39:51;5.07;;;2.15;;
19687;SDS011;9993;52.008;4.732;2022-08-21T10:42:31;5.85;;;2.65;;
19687;SDS011;9993;52.008;4.732;2022-08-21T10:48:04;5.75;;;2.22;;
19687;SDS011;9993;52.008;4.732;2022-08-21T10:50:28;6.97;;;2.08;;
19687;SDS011;9993;52.008;4.732;2022-08-21T10:52:58;8.80;;;2.25;;
19687;SDS011;9993;52.008;4.732;2022-08-21T10:55:27;3.55;;;1.98;;
19687;SDS011;9993;52.008;4.732;2022-08-21T10:58:02;6.07;;;2.20;;
19687;SDS011;9993;52.008;4.732;2022-08-21T11:05:31;5.75;;;2.40;;
19687;SDS011;9993;52.008;4.732;2022-08-21T11:10:33;3.83;;;1.88;;
19687;SDS011;9993;52.008;4.732;2022-08-21T11:15:53;4.78;;;1.75;;
19687;SDS011;9993;52.008;4.732;2022-08-21T11:20:56;5.50;;;2.10;;
19687;SDS011;9993;52.008;4.732;2022-08-21T11:23:57;4.03;;;2.10;;
19687;SDS011;9993;52.008;4.732;2022-08-21T11:26:30;5.38;;;1.98;;
19687;SDS011;9993;52.008;4.732;2022-08-21T11:29:02;5.88;;;2.28;;
19687;SDS011;9993;52.008;4.732;2022-08-21T11:31:35;4.43;;;1.85;;
19687;SDS011;9993;52.008;4.732;2022-08-21T11:34:10;5.22;;;1.80;;
19687;SDS011;9993;52.008;4.732;2022-08-21T11:36:40;4.57;;;2.25;;
19687;SDS011;9993;52.008;4.732;2022-08-21T11:39:15;4.75;;;1.98;;
19687;SDS011;9993;52.008;4.732;2022-08-21T11:41:48;7.22;;;1.65;;
19687;SDS011;9993;52.008;4.732;2022-08-21T11:44:18;4.90;;;1.77;;
19687;SDS011;9993;52.008;4.732;2022-08-21T11:46:49;7.10;;;1.90;;
19687;SDS011;9993;52.008;4.732;2022-08-21T11:49:33;4.25;;;1.83;;
19687;SDS011;9993;52.008;4.732;2022-08-21T11:52:10;5.00;;;2.17;;
19687;SDS011;9993;52.008;4.732;2022-08-21T11:54:42;3.75;;;1.92;;
19687;SDS011;9993;52.008;4.732;2022-08-21T11:57:21;7.40;;;2.22;;
19687;SDS011;9993;52.008;4.732;2022-08-21T12:02:20;3.67;;;2.05;;
19687;SDS011;9993;52.008;4.732;2022-08-21T12:04:47;5.70;;;1.85;;
19687;SDS011;9993;52.008;4.732;2022-08-21T12:07:14;3.53;;;1.73;;
19687;SDS011;9993;52.008;4.732;2022-08-21T12:09:40;5.28;;;2.05;;
19687;SDS011;9993;52.008;4.732;2022-08-21T12:12:23;5.55;;;2.08;;
19687;SDS011;9993;52.008;4.732;2022-08-21T12:14:50;3.75;;;1.60;;
19687;SDS011;9993;52.008;4.732;2022-08-21T12:17:23;4.88;;;1.60;;
19687;SDS011;9993;52.008;4.732;2022-08-21T12:19:58;2.92;;;1.55;;
19687;SDS011;9993;52.008;4.732;2022-08-21T12:22:34;5.63;;;2.00;;
19687;SDS011;9993;52.008;4.732;2022-08-21T12:25:03;4.75;;;1.80;;
19687;SDS011;9993;52.008;4.732;2022-08-21T12:27:30;2.70;;;1.70;;
19687;SDS011;9993;52.008;4.732;2022-08-21T12:29:59;4.75;;;2.05;;
19687;SDS011;9993;52.008;4.732;2022-08-21T12:32:29;2.22;;;1.60;;
19687;SDS011;9993;52.008;4.732;2022-08-21T12:35:10;4.30;;;1.88;;
19687;SDS011;9993;52.008;4.732;2022-08-21T12:37:41;3.28;;;1.58;;
19687;SDS011;9993;52.008;4.732;2022-08-21T12:40:20;4.75;;;1.75;;
19687;SDS011;9993;52.008;4.732;2022-08-21T12:42:47;3.20;;;1.75;;
19687;SDS011;9993;52.008;4.732;2022-08-21T12:47:47;3.10;;;1.77;;
19687;SDS011;9993;52.008;4.732;2022-08-21T12:50:16;2.97;;;1.50;;
19687;SDS011;9993;52.008;4.732;2022-08-21T12:52:58;3.17;;;1.67;;
19687;SDS011;9993;52.008;4.732;2022-08-21T12:55:32;3.70;;;1.55;;
19687;SDS011;9993;52.008;4.732;2022-08-21T12:57:57;3.38;;;1.77;;
19687;SDS011;9993;52.008;4.732;2022-08-21T13:00:24;3.90;;;1.85;;
19687;SDS011;9993;52.008;4.732;2022-08-21T13:02:49;3.20;;;1.70;;
19687;SDS011;9993;52.008;4.732;2022-08-21T13:05:34;3.95;;;1.55;;
19687;SDS011;9993;52.008;4.732;2022-08-21T13:08:06;2.22;;;1.38;;
19687;SDS011;9993;52.008;4.732;2022-08-21T13:10:33;4.00;;;1.70;;
19687;SDS011;9993;52.008;4.732;2022-08-21T13:13:18;5.75;;;1.52;;
19687;SDS011;9993;52.008;4.732;2022-08-21T13:15:44;2.22;;;1.42;;
19687;SDS011;9993;52.008;4.732;2022-08-21T13:18:18;3.85;;;1.70;;
19687;SDS011;9993;52.008;4.732;2022-08-21T13:20:44;4.10;;;1.67;;
19687;SDS011;9993;52.008;4.732;2022-08-21T13:25:49;3.83;;;1.45;;
19687;SDS011;9993;52.008;4.732;2022-08-21T13:28:15;3.97;;;1.70;;
19687;SDS011;9993;52.008;4.732;2022-08-21T13:30:48;3.55;;;1.55;;
19687;SDS011;9993;52.008;4.732;2022-08-21T13:33:14;6.07;;;1.77;;
19687;SDS011;9993;52.008;4.732;2022-08-21T13:35:51;3.35;;;1.67;;
19687;SDS011;9993;52.008;4.732;2022-08-21T13:38:18;3.22;;;1.60;;
19687;SDS011;9993;52.008;4.732;2022-08-21T13:40:46;3.47;;;1.65;;
19687;SDS011;9993;52.008;4.732;2022-08-21T13:43:14;3.22;;;1.60;;
19687;SDS011;9993;52.008;4.732;2022-08-21T13:45:42;4.80;;;1.77;;
19687;SDS011;9993;52.008;4.732;2022-08-21T13:48:08;2.75;;;1.58;;
19687;SDS011;9993;52.008;4.732;2022-08-21T13:50:33;4.43;;;1.60;;
19687;SDS011;9993;52.008;4.732;2022-08-21T13:53:01;4.72;;;1.65;;
19687;SDS011;9993;52.008;4.732;2022-08-21T13:55:34;2.83;;;1.33;;
19687;SDS011;9993;52.008;4.732;2022-08-21T13:58:01;3.65;;;1.50;;
19687;SDS011;9993;52.008;4.732;2022-08-21T14:00:28;5.05;;;1.85;;
19687;SDS011;9993;52.008;4.732;2022-08-21T14:02:59;4.35;;;1.63;;
19687;SDS011;9993;52.008;4.732;2022-08-21T14:05:26;3.55;;;1.75;;
19687;SDS011;9993;52.008;4.732;2022-08-21T14:07:57;5.45;;;1.67;;
19687;SDS011;9993;52.008;4.732;2022-08-21T14:10:24;3.28;;;1.73;;
19687;SDS011;9993;52.008;4.732;2022-08-21T14:12:57;3.22;;;1.85;;
19687;SDS011;9993;52.008;4.732;2022-08-21T14:15:25;3.20;;;1.50;;
19687;SDS011;9993;52.008;4.732;2022-08-21T14:17:50;2.85;;;1.50;;
19687;SDS011;9993;52.008;4.732;2022-08-21T14:20:29;4.43;;;1.75;;
19687;SDS011;9993;52.008;4.732;2022-08-21T14:22:55;3.72;;;1.67;;
19687;SDS011;9993;52.008;4.732;2022-08-21T14:27:53;3.65;;;1.98;;
19687;SDS011;9993;52.008;4.732;2022-08-21T14:30:20;6.03;;;2.13;;
19687;SDS011;9993;52.008;4.732;2022-08-21T14:32:45;3.88;;;1.40;;
19687;SDS011;9993;52.008;4.732;2022-08-21T14:35:11;3.92;;;1.70;;
19687;SDS011;9993;52.008;4.732;2022-08-21T14:37:36;3.67;;;2.30;;
19687;SDS011;9993;52.008;4.732;2022-08-21T14:40:03;4.32;;;1.70;;
19687;SDS011;9993;52.008;4.732;2022-08-21T14:42:28;3.00;;;1.55;;
19687;SDS011;9993;52.008;4.732;2022-08-21T14:44:53;4.88;;;1.75;;
19687;SDS011;9993;52.008;4.732;2022-08-21T14:47:21;2.80;;;1.40;;
19687;SDS011;9993;52.008;4.732;2022-08-21T14:49:46;4.93;;;1.65;;
19687;SDS011;9993;52.008;4.732;2022-08-21T14:52:12;5.22;;;1.63;;
19687;SDS011;9993;52.008;4.732;2022-08-21T14:54:37;3.83;;;1.50;;
19687;SDS011;9993;52.008;4.732;2022-08-21T14:57:06;6.45;;;1.88;;
19687;SDS011;9993;52.008;4.732;2022-08-21T14:59:33;2.85;;;1.77;;
19687;SDS011;9993;52.008;4.732;2022-08-21T15:01:59;3.08;;;1.90;;
19687;SDS011;9993;52.008;4.732;2022-08-21T15:04:24;2.55;;;1.63;;
19687;SDS011;9993;52.008;4.732;2022-08-21T15:06:49;2.75;;;1.77;;
19687;SDS011;9993;52.008;4.732;2022-08-21T15:09:15;5.00;;;1.60;;
19687;SDS011;9993;52.008;4.732;2022-08-21T15:11:40;1.52;;;1.40;;
19687;SDS011;9993;52.008;4.732;2022-08-21T15:14:06;4.57;;;2.17;;
19687;SDS011;9993;52.008;4.732;2022-08-21T15:16:32;4.13;;;1.60;;
19687;SDS011;9993;52.008;4.732;2022-08-21T15:18:58;3.47;;;1.38;;
19687;SDS011;9993;52.008;4.732;2022-08-21T15:21:23;3.72;;;1.48;;
19687;SDS011;9993;52.008;4.732;2022-08-21T15:23:48;3.77;;;1.83;;
19687;SDS011;9993;52.008;4.732;2022-08-21T15:26:13;4.60;;;1.80;;
19687;SDS011;9993;52.008;4.732;2022-08-21T15:28:39;5.95;;;1.80;;
19687;SDS011;9993;52.008;4.732;2022-08-21T15:31:04;7.45;;;2.05;;
19687;SDS011;9993;52.008;4.732;2022-08-21T15:33:30;6.25;;;2.65;;
19687;SDS011;9993;52.008;4.732;2022-08-21T15:35:55;7.18;;;2.00;;
19687;SDS011;9993;52.008;4.732;2022-08-21T15:38:21;2.88;;;2.20;;
19687;SDS011;9993;52.008;4.732;2022-08-21T15:40:46;3.60;;;2.08;;
19687;SDS011;9993;52.008;4.732;2022-08-21T15:43:17;5.47;;;1.70;;
19687;SDS011;9993;52.008;4.732;2022-08-21T15:45:43;4.93;;;2.38;;
19687;SDS011;9993;52.008;4.732;2022-08-21T15:48:08;4.22;;;3.33;;
19687;SDS011;9993;52.008;4.732;2022-08-21T15:50:34;3.78;;;1.75;;
19687;SDS011;9993;52.008;4.732;2022-08-21T15:52:59;3.00;;;2.13;;
19687;SDS011;9993;52.008;4.732;2022-08-21T15:55:24;4.35;;;1.90;;